METAR Data
IDs: Format: Raw Decoded Include TAF

Data at: 0634 UTC 01 Aug 2021

LEXJ 010600Z 23006KT 200V260 9999 FEW024 SCT050 15/13 Q1018